Flight Track Log - Related Links

Times and Time Zones

All times are in EDT time to prevent confusion due to time zone crossing. See the SWA920 flight status page for this flight to view local times or setup timezone preferences in your user account.

Time Position Orientation Groundspeed Altitude Reporting Facility
EDT Latitude Longitude Course Direction KTS MPH feet Rate Location/Type
Fri 07:47:16 PM 33.0353 -79.9986 15° North 222 255 6,500  Level Jacksonville Center
Fri 07:48:16 PM 33.1097 -79.9739 16° North 245 282 10,500 3,350 Climbing Jacksonville Center
Fri 07:49:16 PM 33.1856 -79.9167 32° Northeast 304 350 13,200 3,000 Climbing Jacksonville Center
Fri 07:50:16 PM 33.2697 -79.8517 33° Northeast 322 371 16,500 3,050 Climbing Jacksonville Center
Fri 07:51:00 PM 33.3914 -79.8784 North  Level FlightAware Approximate
Fri 07:51:16 PM 33.3558 -79.7842 33° Northeast 350 403 19,300  Level Jacksonville Center
Fri 07:52:16 PM 33.4478 -79.7139 33° Northeast 367 422 21,800 1,850 Climbing Jacksonville Center
Fri 07:53:16 PM 33.5442 -79.6381 33° Northeast 391 450 23,000 1,300 Climbing Jacksonville Center
Fri 07:54:16 PM 33.6400 -79.5622 33° Northeast 403 464 24,400 1,850 Climbing Jacksonville Center
Fri 07:55:16 PM 33.7425 -79.4858 32° Northeast 420 483 26,700 2,200 Climbing Jacksonville Center
Fri 07:56:16 PM 33.8303 -79.4150 34° Northeast 426 490 28,800 2,050 Climbing Jacksonville Center
Fri 07:57:16 PM 33.9303 -79.3383 32° Northeast 421 484 30,800 2,294 Climbing Jacksonville Center
Fri 07:59:06 PM 34.1114 -79.1936 33° Northeast 430 495 35,300 2,153 Climbing Washington Center
Fri 08:00:06 PM 34.2053 -79.1225 32° Northeast 415 478 36,900 1,400 Climbing Washington Center
Fri 08:01:06 PM 34.3017 -79.0386 36° Northeast 415 478 38,100 958 Climbing Washington Center
Fri 08:02:05 PM 34.3953 -78.9719 30° Northeast 398 458 38,800 350 Climbing Washington Center
Fri 08:03:06 PM 34.4933 -78.8981 32° Northeast 404 465 38,800 -885 Level Washington Center
Fri 08:04:07 PM 34.5972 -78.8417 24° Northeast 409 471 37,000 -908 Descending Washington Center
Fri 08:05:05 PM 34.7008 -78.7903 22° Northeast 397 457 37,000  Level Washington Center
Fri 08:06:05 PM 34.8022 -78.7386 23° Northeast 397 457 37,000  Level Washington Center
Fri 08:07:06 PM 34.9039 -78.6867 23° Northeast 397 457 37,000  Level Washington Center
Fri 08:08:06 PM 35.0072 -78.6350 22° Northeast 397 457 37,000  Level Washington Center
Fri 08:09:07 PM 35.1108 -78.5803 23° Northeast 397 457 37,000  Level Washington Center
Fri 08:10:05 PM 35.2144 -78.5283 22° Northeast 397 457 37,000  Level Washington Center
Fri 08:11:05 PM 35.3181 -78.4736 23° Northeast 397 457 37,000  Level Washington Center
Fri 08:12:06 PM 35.4197 -78.4161 25° Northeast 403 464 37,000  Level Washington Center
Fri 08:13:07 PM 35.5400 -78.3564 22° Northeast 403 464 37,000  Level Washington Center
Fri 08:14:07 PM 35.6433 -78.3089 20° North 403 464 37,000  Level Washington Center
Fri 08:15:07 PM 35.7467 -78.2561 23° Northeast 398 458 37,000  Level Washington Center
Fri 08:16:05 PM 35.8500 -78.2033 22° Northeast 398 458 37,000  Level Washington Center
Fri 08:17:06 PM 35.9536 -78.1478 23° Northeast 398 458 37,000  Level Washington Center
Fri 08:18:06 PM 36.0569 -78.0944 23° Northeast 398 458 37,000  Level Washington Center
Fri 08:19:07 PM 36.1622 -78.0414 22° Northeast 398 458 37,000 -298 Level Washington Center
Fri 08:20:07 PM 36.2678 -77.9853 23° Northeast 398 458 36,400 -1,900 Descending Washington Center
Fri 08:21:07 PM 36.3733 -77.9267 24° Northeast 398 458 33,200 -3,356 Descending Washington Center
Fri 08:22:05 PM 36.4828 -77.8678 23° Northeast 398 458 29,800 -2,136 Descending Washington Center
Fri 08:23:05 PM 36.5986 -77.8092 22° Northeast 422 486 29,000 -843 Descending Washington Center
Fri 08:24:06 PM 36.7106 -77.7475 24° Northeast 434 499 28,100 -893 Descending Washington Center
Fri 08:25:06 PM 36.8178 -77.6908 23° Northeast 429 494 27,200 -950 Descending Washington Center
Fri 08:26:06 PM 36.9231 -77.6339 23° Northeast 418 481 26,200 -992 Descending Washington Center
Fri 08:27:07 PM 37.0283 -77.5769 23° Northeast 413 475 25,200 -992 Descending Washington Center
Fri 08:28:07 PM 37.1317 -77.5222 23° Northeast 408 470 24,200 -1,017 Descending Washington Center
Fri 08:29:05 PM 37.2306 -77.4672 24° Northeast 397 457 23,200 -600 Descending Washington Center
Fri 08:30:07 PM 37.3272 -77.4147 23° Northeast 386 444 23,000 -100 Descending Washington Center
Fri 08:31:05 PM 37.4281 -77.3597 23° Northeast 380 437 23,000  Level Washington Center
Fri 08:32:06 PM 37.5289 -77.3122 20° North 380 437 23,000  Level Washington Center
Fri 08:33:06 PM 37.6336 -77.2911 North 380 437 23,000  Level Washington Center
Fri 08:34:07 PM 37.7403 -77.2697 North 375 432 23,000  Level Washington Center
Fri 08:35:07 PM 37.8469 -77.2486 North 375 432 23,000 -305 Level Washington Center
Fri 08:36:05 PM 37.9514 -77.2272 North 380 437 22,400 -814 Descending Washington Center
Fri 08:37:05 PM 38.0558 -77.2108 North 380 437 21,400 -1,289 Descending Washington Center
Fri 08:38:06 PM 38.1625 -77.1869 10° North 380 437 19,800 -1,756 Descending Washington Center
Fri 08:39:08 PM 38.2631 -77.1625 11° North 380 437 17,800 -2,218 Descending Washington Center
Fri 08:40:05 PM 38.3592 -77.1433 North 367 422 15,400 -1,576 Descending Washington Center
Fri 08:41:06 PM 38.4267 -77.0864 33° Northeast 348 400 14,700 -1,672 Descending Washington Center
Fri 08:42:07 PM 38.5133 -76.9819 43° Northeast 348 400 12,000 -1,686 Descending Washington Center
Fri 08:43:07 PM 38.5811 -76.8983 44° Northeast 337 388 11,300 -950 Descending Washington Center
Fri 08:44:07 PM 38.6422 -76.8222 44° Northeast 322 371 10,100 -1,169 Descending Washington Center
Fri 08:45:05 PM 38.6992 -76.7514 44° Northeast 295 339 9,000 -908 Descending Washington Center
Fri 08:46:06 PM 38.7397 -76.6669 58° Northeast 283 326 8,300 -1,135 Descending Washington Center
Fri 08:46:56 PM 38.7833 -76.5833 56° Northeast 283 326 6,900 -1,527 Descending Potomac TRACON
Fri 08:47:56 PM 38.8333 -76.5167 46° Northeast 279 321 5,500 -1,421 Descending Potomac TRACON
Fri 08:48:50 PM 38.8833 -76.5333 345° North 260 299 4,200 -1,150 Descending Potomac TRACON
Fri 08:49:56 PM 38.9667 -76.5500 351° North 239 275 3,200 -613 Descending Potomac TRACON
Fri 08:51:00 PM 39.0613 -76.6212 343° North  Level FlightAware Approximate
Fri 08:51:56 PM 39.0833 -76.5833 343° North 183 211 2,300  Level Potomac TRACON
Fri 08:52:56 PM 39.1167 -76.6167 322° Northwest 163 188 1,300 -900 Descending Potomac TRACON
Fri 08:53:56 PM 39.1500 -76.6500 322° Northwest 139 160 500 -800 Descending Potomac TRACON
Fri 08:55:00 PM 39.1667 -76.6667 339° North  Level FlightAware Approximate
Fri 09:02:00 PM 39.1754 -76.6683 339° North  Level Estimated
Fri 09:03:00 PM 39.1754 -76.6683 339° North  Level Estimated
Fri 09:04:00 PM 39.1754 -76.6683 339° North  Level Estimated
Fri 09:05:00 PM 39.1754 -76.6683 339° North  Level Estimated
Fri 09:06:00 PM 39.1754 -76.6683 339° North  Level Estimated
Fri 09:07:00 PM 39.1754 -76.6683 339° North  Level Estimated

Login

Don't have an account? Register now (free) for customized features, flight alerts, and more!